createdAt,value
2022-11-30T00:00:06.975Z,1023.67
2022-11-30T00:00:16.438Z,1023.63
2022-11-30T00:00:25.845Z,1023.65
2022-11-30T00:00:35.372Z,1023.68
2022-11-30T00:00:44.727Z,1023.73
2022-11-30T00:00:54.152Z,1023.64
2022-11-30T00:01:03.565Z,1023.66
2022-11-30T00:01:12.974Z,1023.72
2022-11-30T00:01:22.432Z,1023.73
2022-11-30T00:01:31.833Z,1023.68
2022-11-30T00:01:41.258Z,1023.63
2022-11-30T00:01:50.702Z,1023.74
2022-11-30T00:02:09.591Z,1023.79
2022-11-30T00:02:19.095Z,1023.71
2022-11-30T00:02:28.445Z,1023.70
2022-11-30T00:02:37.979Z,1023.72
2022-11-30T00:02:47.407Z,1023.72
2022-11-30T00:02:56.740Z,1023.66
2022-11-30T00:03:06.386Z,1023.68
2022-11-30T00:03:15.833Z,1023.68
2022-11-30T00:03:25.270Z,1023.66
2022-11-30T00:03:34.630Z,1023.65
2022-11-30T00:03:44.073Z,1023.70
2022-11-30T00:03:53.511Z,1023.71
2022-11-30T00:04:02.942Z,1023.71
2022-11-30T00:04:12.367Z,1023.63
2022-11-30T00:04:21.789Z,1023.72
2022-11-30T00:04:31.221Z,1023.67
2022-11-30T00:04:40.637Z,1023.67
2022-11-30T00:04:59.477Z,1023.63
2022-11-30T00:05:08.901Z,1023.63
2022-11-30T00:05:18.334Z,1023.64
2022-11-30T00:05:27.723Z,1023.66
2022-11-30T00:05:37.139Z,1023.62
2022-11-30T00:05:46.685Z,1023.71
2022-11-30T00:05:56.114Z,1023.62
2022-11-30T00:06:05.535Z,1023.63
2022-11-30T00:06:14.959Z,1023.66
2022-11-30T00:06:24.425Z,1023.68
2022-11-30T00:06:33.876Z,1023.61
2022-11-30T00:06:43.300Z,1023.66
2022-11-30T00:06:52.754Z,1023.64
2022-11-30T00:07:02.159Z,1023.63
2022-11-30T00:07:11.709Z,1023.64
2022-11-30T00:07:21.160Z,1023.66
2022-11-30T00:07:30.593Z,1023.70
2022-11-30T00:07:49.514Z,1023.66
2022-11-30T00:07:59.061Z,1023.61
2022-11-30T00:08:08.395Z,1023.66
2022-11-30T00:08:17.821Z,1023.66
2022-11-30T00:08:27.300Z,1023.68
2022-11-30T00:08:36.724Z,1023.62
2022-11-30T00:08:46.169Z,1023.65
2022-11-30T00:08:55.639Z,1023.62
2022-11-30T00:09:05.063Z,1023.69
2022-11-30T00:09:14.469Z,1023.64
2022-11-30T00:09:23.884Z,1023.62
2022-11-30T00:09:33.303Z,1023.64
2022-11-30T00:09:42.770Z,1023.68
2022-11-30T00:09:52.193Z,1023.73
2022-11-30T00:10:01.607Z,1023.70
2022-11-30T00:10:11.038Z,1023.64
2022-11-30T00:10:20.478Z,1023.70
2022-11-30T00:10:39.445Z,1023.70
2022-11-30T00:10:48.782Z,1023.75
2022-11-30T00:10:58.208Z,1023.71
2022-11-30T00:11:07.604Z,1023.67
2022-11-30T00:11:17.074Z,1023.67
2022-11-30T00:11:26.540Z,1023.63
2022-11-30T00:11:36.157Z,1023.72
2022-11-30T00:11:45.605Z,1023.69
2022-11-30T00:11:55.026Z,1023.72
2022-11-30T00:12:04.549Z,1023.70
2022-11-30T00:12:13.965Z,1023.73
2022-11-30T00:12:23.564Z,1023.70
2022-11-30T00:12:32.989Z,1023.79
2022-11-30T00:12:42.533Z,1023.72
2022-11-30T00:12:51.910Z,1023.70
2022-11-30T00:13:01.339Z,1023.75
2022-11-30T00:13:10.817Z,1023.72
2022-11-30T00:13:20.216Z,1023.74
2022-11-30T00:13:39.077Z,1023.76
2022-11-30T00:13:48.520Z,1023.74
2022-11-30T00:13:57.986Z,1023.77
2022-11-30T00:14:07.435Z,1023.76
2022-11-30T00:14:16.887Z,1023.81
2022-11-30T00:14:26.305Z,1023.73
2022-11-30T00:14:35.745Z,1023.76
2022-11-30T00:14:45.584Z,1023.75
2022-11-30T00:14:54.577Z,1023.76
2022-11-30T00:15:03.989Z,1023.75
2022-11-30T00:15:13.411Z,1023.76
2022-11-30T00:15:22.878Z,1023.74
2022-11-30T00:15:32.304Z,1023.73
2022-11-30T00:15:41.743Z,1023.73
2022-11-30T00:15:51.172Z,1023.73
2022-11-30T00:16:00.636Z,1023.76
2022-11-30T00:16:19.616Z,1023.79
2022-11-30T00:16:29.060Z,1023.79
2022-11-30T00:16:38.382Z,1023.73
2022-11-30T00:16:47.871Z,1023.75
2022-11-30T00:16:57.221Z,1023.74
2022-11-30T00:17:06.720Z,1023.70
2022-11-30T00:17:16.057Z,1023.74
2022-11-30T00:17:25.491Z,1023.77
2022-11-30T00:17:34.893Z,1023.78
2022-11-30T00:17:44.300Z,1023.73
2022-11-30T00:17:53.739Z,1023.72
2022-11-30T00:18:03.149Z,1023.76
2022-11-30T00:18:12.651Z,1023.76
2022-11-30T00:18:22.239Z,1023.78
2022-11-30T00:18:31.662Z,1023.69
2022-11-30T00:18:41.083Z,1023.70
2022-11-30T00:18:50.510Z,1023.77
2022-11-30T00:19:09.410Z,1023.76
2022-11-30T00:19:18.851Z,1023.80
2022-11-30T00:19:28.285Z,1023.79
2022-11-30T00:19:37.707Z,1023.68
2022-11-30T00:19:47.165Z,1023.76
2022-11-30T00:19:56.612Z,1023.76
2022-11-30T00:20:06.035Z,1023.71
2022-11-30T00:20:15.465Z,1023.77
2022-11-30T00:20:24.863Z,1023.70
2022-11-30T00:20:34.291Z,1023.80
2022-11-30T00:20:43.747Z,1023.78
2022-11-30T00:20:53.179Z,1023.71
2022-11-30T00:21:02.593Z,1023.75
2022-11-30T00:21:12.035Z,1023.72
2022-11-30T00:21:21.447Z,1023.75
2022-11-30T00:21:30.864Z,1023.78
2022-11-30T00:21:40.430Z,1023.77
2022-11-30T00:21:59.277Z,1023.77
2022-11-30T00:22:08.717Z,1023.83
2022-11-30T00:22:18.128Z,1023.77
2022-11-30T00:22:27.575Z,1023.70
2022-11-30T00:22:36.993Z,1023.73
2022-11-30T00:22:46.429Z,1023.77
2022-11-30T00:22:55.858Z,1023.73
2022-11-30T00:23:05.284Z,1023.78
2022-11-30T00:23:14.743Z,1023.78
2022-11-30T00:23:24.167Z,1023.75
2022-11-30T00:23:33.576Z,1023.80
2022-11-30T00:23:42.998Z,1023.77
2022-11-30T00:23:52.419Z,1023.79
2022-11-30T00:24:01.826Z,1023.83
2022-11-30T00:24:11.256Z,1023.83
2022-11-30T00:24:20.689Z,1023.78
2022-11-30T00:24:39.507Z,1023.84
2022-11-30T00:24:49.258Z,1023.80
2022-11-30T00:24:58.380Z,1023.81
2022-11-30T00:25:07.817Z,1023.90
2022-11-30T00:25:17.226Z,1023.79
2022-11-30T00:25:26.653Z,1023.79
2022-11-30T00:25:36.049Z,1023.81
2022-11-30T00:25:45.605Z,1023.81
2022-11-30T00:25:55.055Z,1023.81
2022-11-30T00:26:04.470Z,1023.81
2022-11-30T00:26:14.006Z,1023.84
2022-11-30T00:26:23.489Z,1023.78
2022-11-30T00:26:33.003Z,1023.79
2022-11-30T00:26:42.433Z,1023.80
2022-11-30T00:26:51.856Z,1023.86
2022-11-30T00:27:01.347Z,1023.77
2022-11-30T00:27:10.772Z,1023.86
2022-11-30T00:27:29.607Z,1023.83
2022-11-30T00:27:39.032Z,1023.75
2022-11-30T00:27:48.485Z,1023.79
2022-11-30T00:27:57.875Z,1023.80
2022-11-30T00:28:07.317Z,1023.81
2022-11-30T00:28:16.782Z,1023.82
2022-11-30T00:28:26.497Z,1023.83
2022-11-30T00:28:35.923Z,1023.73
2022-11-30T00:28:45.356Z,1023.80
2022-11-30T00:28:54.765Z,1023.83
2022-11-30T00:29:04.194Z,1023.81
2022-11-30T00:29:13.647Z,1023.80
2022-11-30T00:29:23.061Z,1023.79
2022-11-30T00:29:32.508Z,1023.77
2022-11-30T00:29:41.953Z,1023.84
2022-11-30T00:29:51.456Z,1023.81
2022-11-30T00:30:00.900Z,1023.77
2022-11-30T00:30:10.439Z,1023.78
2022-11-30T00:30:29.372Z,1023.77
2022-11-30T00:30:38.758Z,1023.82
2022-11-30T00:30:48.206Z,1023.81
2022-11-30T00:30:57.624Z,1023.84
2022-11-30T00:31:07.103Z,1023.74
2022-11-30T00:31:16.541Z,1023.78
2022-11-30T00:31:25.977Z,1023.77
2022-11-30T00:31:35.399Z,1023.74
2022-11-30T00:31:44.806Z,1023.73
2022-11-30T00:31:54.248Z,1023.75
2022-11-30T00:32:03.708Z,1023.78
2022-11-30T00:32:13.179Z,1023.76
2022-11-30T00:32:22.600Z,1023.77
2022-11-30T00:32:32.039Z,1023.72
2022-11-30T00:32:41.466Z,1023.70
2022-11-30T00:32:50.931Z,1023.67
2022-11-30T00:33:00.363Z,1023.70
2022-11-30T00:33:19.231Z,1023.72
2022-11-30T00:33:28.681Z,1023.76
2022-11-30T00:33:38.115Z,1023.75
2022-11-30T00:33:47.537Z,1023.77
2022-11-30T00:33:56.957Z,1023.76
2022-11-30T00:34:06.373Z,1023.72
2022-11-30T00:34:15.806Z,1023.78
2022-11-30T00:34:25.263Z,1023.80
2022-11-30T00:34:34.690Z,1023.74
2022-11-30T00:34:44.587Z,1023.83
2022-11-30T00:34:53.618Z,1023.83
2022-11-30T00:35:03.086Z,1023.85
2022-11-30T00:35:12.524Z,1023.77
2022-11-30T00:35:21.957Z,1023.82
2022-11-30T00:35:31.472Z,1023.80
2022-11-30T00:35:40.903Z,1023.80
2022-11-30T00:35:50.313Z,1023.83
2022-11-30T00:36:09.157Z,1023.78
2022-11-30T00:36:18.575Z,1023.79
2022-11-30T00:36:27.991Z,1023.82
2022-11-30T00:36:37.371Z,1023.82
2022-11-30T00:36:46.801Z,1023.77
2022-11-30T00:36:56.231Z,1023.73
2022-11-30T00:37:05.643Z,1023.73
2022-11-30T00:37:15.058Z,1023.73
2022-11-30T00:37:24.572Z,1023.72
2022-11-30T00:37:33.980Z,1023.72
2022-11-30T00:37:43.382Z,1023.74
2022-11-30T00:37:52.794Z,1023.63
2022-11-30T00:38:02.186Z,1023.78
2022-11-30T00:38:11.575Z,1023.70
2022-11-30T00:38:20.989Z,1023.73
2022-11-30T00:38:30.495Z,1023.79
2022-11-30T00:38:49.304Z,1023.76
2022-11-30T00:38:58.725Z,1023.81
2022-11-30T00:39:08.166Z,1023.81
2022-11-30T00:39:17.558Z,1023.70
2022-11-30T00:39:30.970Z,1023.68
2022-11-30T00:39:36.338Z,1023.73
2022-11-30T00:39:45.712Z,1023.78
2022-11-30T00:39:55.159Z,1023.75
2022-11-30T00:40:04.610Z,1023.79
2022-11-30T00:40:14.148Z,1023.79
2022-11-30T00:40:23.555Z,1023.75
2022-11-30T00:40:33.091Z,1023.72
2022-11-30T00:40:42.525Z,1023.78
2022-11-30T00:40:51.924Z,1023.71
2022-11-30T00:41:01.346Z,1023.84
2022-11-30T00:41:10.785Z,1023.78
2022-11-30T00:41:29.626Z,1023.77
2022-11-30T00:41:39.057Z,1023.75
2022-11-30T00:41:48.451Z,1023.76
2022-11-30T00:41:57.857Z,1023.74
2022-11-30T00:42:07.382Z,1023.79
2022-11-30T00:42:16.818Z,1023.80
2022-11-30T00:42:26.244Z,1023.80
2022-11-30T00:42:35.712Z,1023.80
2022-11-30T00:42:45.120Z,1023.77
2022-11-30T00:42:54.545Z,1023.77
2022-11-30T00:43:03.949Z,1023.76
2022-11-30T00:43:16.211Z,1023.80
2022-11-30T00:43:25.685Z,1023.82
2022-11-30T00:43:35.151Z,1023.74
2022-11-30T00:43:44.789Z,1023.87
2022-11-30T00:43:54.208Z,1023.85
2022-11-30T00:44:03.628Z,1023.87
2022-11-30T00:44:13.038Z,1023.68
2022-11-30T00:44:22.449Z,1023.80
2022-11-30T00:44:31.906Z,1023.79
2022-11-30T00:44:41.348Z,1023.73
2022-11-30T00:44:50.898Z,1023.74
2022-11-30T00:45:00.381Z,1023.82
2022-11-30T00:45:19.320Z,1023.71
2022-11-30T00:45:28.719Z,1023.74
2022-11-30T00:45:38.135Z,1023.74
2022-11-30T00:45:47.681Z,1023.76
2022-11-30T00:45:57.262Z,1023.67
2022-11-30T00:46:06.603Z,1023.70
2022-11-30T00:46:15.979Z,1023.73
2022-11-30T00:46:25.365Z,1023.83
2022-11-30T00:46:34.819Z,1023.76
2022-11-30T00:46:44.149Z,1023.72
2022-11-30T00:46:53.568Z,1023.76
2022-11-30T00:47:03.049Z,1023.76
2022-11-30T00:47:12.470Z,1023.71
2022-11-30T00:47:21.930Z,1023.73
2022-11-30T00:47:31.350Z,1023.75
2022-11-30T00:47:40.759Z,1023.74
2022-11-30T00:47:59.646Z,1023.77
2022-11-30T00:48:09.108Z,1023.76
2022-11-30T00:48:18.550Z,1023.72
2022-11-30T00:48:28.035Z,1023.77
2022-11-30T00:48:37.487Z,1023.77
2022-11-30T00:48:46.931Z,1023.75
2022-11-30T00:48:56.369Z,1023.82
2022-11-30T00:49:05.821Z,1023.81
2022-11-30T00:49:15.251Z,1023.76
2022-11-30T00:49:24.704Z,1023.70
2022-11-30T00:49:34.192Z,1023.73
2022-11-30T00:49:43.618Z,1023.77
2022-11-30T00:49:53.027Z,1023.70
2022-11-30T00:50:02.493Z,1023.71
2022-11-30T00:50:11.926Z,1023.77
2022-11-30T00:50:21.337Z,1023.71
2022-11-30T00:50:30.809Z,1023.77
2022-11-30T00:50:40.229Z,1023.80
2022-11-30T00:50:59.117Z,1023.68
2022-11-30T00:51:08.606Z,1023.71
2022-11-30T00:51:18.045Z,1023.80
2022-11-30T00:51:27.458Z,1023.70
2022-11-30T00:51:36.893Z,1023.71
2022-11-30T00:51:46.326Z,1023.70
2022-11-30T00:51:55.918Z,1023.71
2022-11-30T00:52:05.338Z,1023.71
2022-11-30T00:52:14.757Z,1023.78
2022-11-30T00:52:24.186Z,1023.75
2022-11-30T00:52:33.631Z,1023.78
2022-11-30T00:52:43.034Z,1023.79
2022-11-30T00:52:52.520Z,1023.81
2022-11-30T00:53:01.951Z,1023.81
2022-11-30T00:53:11.427Z,1023.83
2022-11-30T00:53:20.844Z,1023.77
2022-11-30T00:53:30.308Z,1023.82
2022-11-30T00:53:49.366Z,1023.82
2022-11-30T00:53:58.897Z,1023.77
2022-11-30T00:54:08.538Z,1023.91
2022-11-30T00:54:17.959Z,1023.83
2022-11-30T00:54:27.365Z,1023.84
2022-11-30T00:54:36.818Z,1023.81
2022-11-30T00:54:46.756Z,1023.83
2022-11-30T00:54:55.937Z,1023.85
2022-11-30T00:55:05.338Z,1023.86
2022-11-30T00:55:14.753Z,1023.84
2022-11-30T00:55:24.155Z,1023.85
2022-11-30T00:55:33.667Z,1023.80
2022-11-30T00:55:43.127Z,1023.81
2022-11-30T00:55:52.548Z,1023.83
2022-11-30T00:56:01.951Z,1023.83
2022-11-30T00:56:11.407Z,1023.82
2022-11-30T00:56:20.830Z,1023.83
2022-11-30T00:56:30.249Z,1023.89
2022-11-30T00:56:49.059Z,1023.92
2022-11-30T00:56:58.478Z,1023.97
2022-11-30T00:57:07.898Z,1023.87
2022-11-30T00:57:17.323Z,1023.83
2022-11-30T00:57:26.781Z,1023.85
2022-11-30T00:57:36.196Z,1023.86
2022-11-30T00:57:45.606Z,1023.83
2022-11-30T00:57:55.071Z,1023.84
2022-11-30T00:58:04.585Z,1023.83
2022-11-30T00:58:13.989Z,1023.83
2022-11-30T00:58:23.409Z,1023.83
2022-11-30T00:58:32.898Z,1023.81
2022-11-30T00:58:42.359Z,1023.79
2022-11-30T00:58:51.837Z,1023.86
2022-11-30T00:59:01.420Z,1023.86
2022-11-30T00:59:10.847Z,1023.80
2022-11-30T00:59:20.265Z,1023.86
2022-11-30T00:59:39.151Z,1023.72
2022-11-30T00:59:48.576Z,1023.87
2022-11-30T00:59:58.026Z,1023.87
2022-11-30T01:00:07.523Z,1023.93
2022-11-30T01:00:16.964Z,1023.83
2022-11-30T01:00:26.394Z,1023.76
2022-11-30T01:00:35.854Z,1023.96
2022-11-30T01:00:45.295Z,1023.88
2022-11-30T01:00:54.839Z,1023.91
2022-11-30T01:01:04.230Z,1023.88
2022-11-30T01:01:13.690Z,1023.88
2022-11-30T01:01:23.197Z,1023.86
2022-11-30T01:01:32.666Z,1023.87
2022-11-30T01:01:42.053Z,1023.91
2022-11-30T01:01:51.479Z,1023.85
2022-11-30T01:02:00.928Z,1023.88
2022-11-30T01:02:10.329Z,1023.85
2022-11-30T01:02:29.222Z,1023.80
2022-11-30T01:02:38.636Z,1023.93
2022-11-30T01:02:48.074Z,1023.89
2022-11-30T01:02:57.394Z,1023.86
2022-11-30T01:03:06.825Z,1023.90
2022-11-30T01:03:16.235Z,1023.84
2022-11-30T01:03:25.664Z,1023.84
2022-11-30T01:03:35.110Z,1023.85
2022-11-30T01:03:44.535Z,1023.84
2022-11-30T01:03:54.184Z,1023.81
2022-11-30T01:04:03.648Z,1023.75
2022-11-30T01:04:13.069Z,1023.78
2022-11-30T01:04:22.562Z,1023.82
2022-11-30T01:04:31.960Z,1023.83
2022-11-30T01:04:41.354Z,1023.91
2022-11-30T01:04:50.760Z,1023.91
2022-11-30T01:05:09.564Z,1023.82
2022-11-30T01:05:19.011Z,1023.85
2022-11-30T01:05:28.464Z,1023.83
2022-11-30T01:05:37.920Z,1023.85
2022-11-30T01:05:47.356Z,1023.78
2022-11-30T01:05:56.847Z,1023.81
2022-11-30T01:06:06.395Z,1023.85
2022-11-30T01:06:15.821Z,1023.81
2022-11-30T01:06:25.236Z,1023.75
2022-11-30T01:06:34.665Z,1023.88
2022-11-30T01:06:44.090Z,1023.80
2022-11-30T01:06:53.523Z,1023.86
2022-11-30T01:07:02.953Z,1023.68
2022-11-30T01:07:12.374Z,1023.84
2022-11-30T01:07:21.858Z,1023.78
2022-11-30T01:07:31.332Z,1023.74
2022-11-30T01:07:40.773Z,1023.75
2022-11-30T01:07:50.283Z,1023.82
2022-11-30T01:08:09.410Z,1023.85
2022-11-30T01:08:18.700Z,1023.79
2022-11-30T01:08:28.115Z,1023.73
2022-11-30T01:08:37.563Z,1023.74
2022-11-30T01:08:46.993Z,1023.72
2022-11-30T01:08:56.441Z,1023.80
2022-11-30T01:09:05.955Z,1023.78
2022-11-30T01:09:15.418Z,1023.72
2022-11-30T01:09:24.873Z,1023.78
2022-11-30T01:09:34.318Z,1023.79
2022-11-30T01:09:43.766Z,1023.71
2022-11-30T01:09:53.192Z,1023.76
2022-11-30T01:10:02.696Z,1023.74
2022-11-30T01:10:12.080Z,1023.75
2022-11-30T01:10:21.509Z,1023.77
2022-11-30T01:10:30.923Z,1023.74
2022-11-30T01:10:40.374Z,1023.72
2022-11-30T01:10:59.256Z,1023.76
2022-11-30T01:11:08.712Z,1023.81
2022-11-30T01:11:18.206Z,1023.78
2022-11-30T01:11:27.639Z,1023.73
2022-11-30T01:11:37.113Z,1023.69
2022-11-30T01:11:46.560Z,1023.74
2022-11-30T01:11:55.999Z,1023.73
2022-11-30T01:12:05.453Z,1023.81
2022-11-30T01:12:14.931Z,1023.74
2022-11-30T01:12:24.384Z,1023.79
2022-11-30T01:12:33.840Z,1023.90
2022-11-30T01:12:43.292Z,1023.84
2022-11-30T01:12:52.863Z,1023.88
2022-11-30T01:13:02.314Z,1023.70
2022-11-30T01:13:11.753Z,1023.82
2022-11-30T01:13:21.145Z,1023.82
2022-11-30T01:13:30.626Z,1023.84
2022-11-30T01:13:49.500Z,1023.82
2022-11-30T01:13:58.947Z,1023.86
2022-11-30T01:14:08.388Z,1023.88
2022-11-30T01:14:17.805Z,1023.83
2022-11-30T01:14:27.243Z,1023.88
2022-11-30T01:14:36.658Z,1023.84
2022-11-30T01:14:46.380Z,1023.88
2022-11-30T01:14:55.464Z,1023.89
2022-11-30T01:15:04.881Z,1023.81
2022-11-30T01:15:14.319Z,1023.82
2022-11-30T01:15:23.768Z,1023.88
2022-11-30T01:15:33.293Z,1023.86
2022-11-30T01:15:42.709Z,1023.85
2022-11-30T01:15:52.147Z,1023.86
2022-11-30T01:16:01.601Z,1023.83
2022-11-30T01:16:11.196Z,1023.82
2022-11-30T01:16:20.496Z,1023.88
2022-11-30T01:16:39.267Z,1023.97
2022-11-30T01:16:52.026Z,1023.91
2022-11-30T01:16:58.346Z,1023.95
2022-11-30T01:17:07.800Z,1023.89
2022-11-30T01:17:17.226Z,1023.85
2022-11-30T01:17:26.635Z,1023.95
2022-11-30T01:17:36.103Z,1023.91
2022-11-30T01:17:45.508Z,1023.86
2022-11-30T01:17:55.038Z,1023.99
2022-11-30T01:18:04.501Z,1023.97
2022-11-30T01:18:13.957Z,1023.94
2022-11-30T01:18:23.378Z,1023.93
2022-11-30T01:18:32.792Z,1023.93
2022-11-30T01:18:42.276Z,1023.90
2022-11-30T01:18:51.685Z,1023.88
2022-11-30T01:19:01.098Z,1023.90
2022-11-30T01:19:10.660Z,1023.92
2022-11-30T01:19:29.469Z,1023.95
2022-11-30T01:19:38.881Z,1023.93
2022-11-30T01:19:48.297Z,1023.88
2022-11-30T01:19:57.702Z,1023.86
2022-11-30T01:20:07.115Z,1023.94
2022-11-30T01:20:16.540Z,1023.86
2022-11-30T01:20:25.977Z,1023.94
2022-11-30T01:20:35.423Z,1023.94
2022-11-30T01:20:44.845Z,1023.93
2022-11-30T01:20:54.303Z,1023.97
2022-11-30T01:21:03.728Z,1023.97
2022-11-30T01:21:13.153Z,1023.95
2022-11-30T01:21:22.565Z,1023.99
2022-11-30T01:21:31.990Z,1023.90
2022-11-30T01:21:41.446Z,1023.92
2022-11-30T01:21:50.891Z,1023.90
2022-11-30T01:22:00.365Z,1023.90
2022-11-30T01:22:19.198Z,1023.95
2022-11-30T01:22:28.637Z,1023.88
2022-11-30T01:22:38.056Z,1023.86
2022-11-30T01:22:47.527Z,1023.95
2022-11-30T01:22:57.000Z,1023.82
2022-11-30T01:23:07.500Z,1023.94
2022-11-30T01:23:16.940Z,1023.87
2022-11-30T01:23:26.375Z,1023.90
2022-11-30T01:23:35.792Z,1023.94
2022-11-30T01:23:45.284Z,1023.85
2022-11-30T01:23:54.711Z,1023.89
2022-11-30T01:24:04.132Z,1023.88
2022-11-30T01:24:13.560Z,1023.93
2022-11-30T01:24:23.011Z,1023.92
2022-11-30T01:24:32.436Z,1023.88
2022-11-30T01:24:41.890Z,1023.88
2022-11-30T01:24:51.377Z,1023.90
2022-11-30T01:25:00.834Z,1023.91
2022-11-30T01:25:10.366Z,1023.86
2022-11-30T01:25:29.206Z,1023.89
2022-11-30T01:25:38.648Z,1023.95
2022-11-30T01:25:48.093Z,1023.94
2022-11-30T01:25:57.553Z,1023.95
2022-11-30T01:26:07.028Z,1023.96
2022-11-30T01:26:16.465Z,1023.88
2022-11-30T01:26:25.878Z,1023.86
2022-11-30T01:26:35.312Z,1023.87
2022-11-30T01:26:44.721Z,1023.92
2022-11-30T01:26:54.199Z,1023.92
2022-11-30T01:27:03.623Z,1023.96
2022-11-30T01:27:13.080Z,1023.85
2022-11-30T01:27:22.502Z,1023.88
2022-11-30T01:27:31.971Z,1023.86
2022-11-30T01:27:41.461Z,1023.92
2022-11-30T01:27:50.911Z,1023.98
2022-11-30T01:28:00.332Z,1023.97
2022-11-30T01:28:19.236Z,1023.90
2022-11-30T01:28:28.659Z,1023.97
2022-11-30T01:28:38.133Z,1023.98
2022-11-30T01:28:47.592Z,1023.93
2022-11-30T01:28:57.000Z,1023.92
2022-11-30T01:29:06.459Z,1023.94
2022-11-30T01:29:15.860Z,1023.93
2022-11-30T01:29:25.263Z,1023.94
2022-11-30T01:29:34.713Z,1023.94
2022-11-30T01:29:44.166Z,1024.00
2022-11-30T01:29:53.593Z,1023.94
2022-11-30T01:30:03.056Z,1023.86
2022-11-30T01:30:12.605Z,1023.88
2022-11-30T01:30:22.021Z,1023.92
2022-11-30T01:30:31.540Z,1023.89
2022-11-30T01:30:41.099Z,1023.98
2022-11-30T01:30:50.439Z,1023.90
2022-11-30T01:31:09.401Z,1023.92
2022-11-30T01:31:18.828Z,1023.79
2022-11-30T01:31:28.165Z,1023.85
2022-11-30T01:31:37.645Z,1023.85
2022-11-30T01:31:47.055Z,1023.88
2022-11-30T01:31:56.482Z,1023.95
2022-11-30T01:32:05.875Z,1023.80
2022-11-30T01:32:15.264Z,1023.84
2022-11-30T01:32:24.671Z,1023.86
2022-11-30T01:32:34.093Z,1023.89
2022-11-30T01:32:43.536Z,1023.92
2022-11-30T01:32:53.019Z,1023.93
2022-11-30T01:33:02.421Z,1023.94
2022-11-30T01:33:11.838Z,1023.86
2022-11-30T01:33:21.282Z,1023.94
2022-11-30T01:33:30.697Z,1023.91
2022-11-30T01:33:49.569Z,1023.89
2022-11-30T01:33:59.161Z,1023.90
2022-11-30T01:34:08.719Z,1023.95
2022-11-30T01:34:18.146Z,1023.93
2022-11-30T01:34:27.543Z,1023.95
2022-11-30T01:34:36.996Z,1023.90
2022-11-30T01:34:46.717Z,1023.93
2022-11-30T01:34:55.819Z,1023.92
2022-11-30T01:35:05.239Z,1023.88
2022-11-30T01:35:14.676Z,1023.96
2022-11-30T01:35:24.096Z,1023.94
2022-11-30T01:35:33.521Z,1023.94
2022-11-30T01:35:42.951Z,1023.99
2022-11-30T01:35:52.368Z,1023.93
2022-11-30T01:36:01.862Z,1023.98
2022-11-30T01:36:11.312Z,1023.89
2022-11-30T01:36:20.742Z,1023.89
2022-11-30T01:36:39.565Z,1023.94
2022-11-30T01:36:49.008Z,1023.96
2022-11-30T01:36:58.417Z,1023.93
2022-11-30T01:37:07.840Z,1023.89
2022-11-30T01:37:17.297Z,1023.88
2022-11-30T01:37:26.777Z,1023.95
2022-11-30T01:37:36.203Z,1023.97
2022-11-30T01:37:45.653Z,1023.89
2022-11-30T01:37:55.091Z,1023.93
2022-11-30T01:38:04.528Z,1023.91
2022-11-30T01:38:13.922Z,1023.95
2022-11-30T01:38:23.357Z,1023.88
2022-11-30T01:38:32.826Z,1023.99
2022-11-30T01:38:42.238Z,1023.91
2022-11-30T01:38:51.698Z,1023.95
2022-11-30T01:39:01.124Z,1024.01
2022-11-30T01:39:10.569Z,1023.98
2022-11-30T01:39:29.418Z,1023.94
2022-11-30T01:39:38.851Z,1023.93
2022-11-30T01:39:48.294Z,1023.85
2022-11-30T01:39:57.710Z,1023.93
2022-11-30T01:40:07.151Z,1023.95
2022-11-30T01:40:16.593Z,1023.90
2022-11-30T01:40:26.023Z,1023.94
2022-11-30T01:40:35.436Z,1023.91
2022-11-30T01:40:44.900Z,1023.93
2022-11-30T01:40:54.325Z,1023.95
2022-11-30T01:41:03.727Z,1023.93
2022-11-30T01:41:13.123Z,1023.91
2022-11-30T01:41:22.536Z,1023.95
2022-11-30T01:41:31.963Z,1023.98
2022-11-30T01:41:41.417Z,1023.93
2022-11-30T01:41:50.813Z,1023.92
2022-11-30T01:42:00.249Z,1023.89
2022-11-30T01:42:19.169Z,1023.94
2022-11-30T01:42:28.488Z,1023.96
2022-11-30T01:42:38.040Z,1023.95
2022-11-30T01:42:47.394Z,1023.94
2022-11-30T01:42:56.808Z,1023.94
2022-11-30T01:43:06.213Z,1023.90
2022-11-30T01:43:15.636Z,1023.96
2022-11-30T01:43:25.110Z,1023.96
2022-11-30T01:43:34.520Z,1023.89
2022-11-30T01:43:43.981Z,1024.00
2022-11-30T01:43:53.438Z,1023.96
2022-11-30T01:44:02.842Z,1023.98
2022-11-30T01:44:15.540Z,1023.98
2022-11-30T01:44:21.734Z,1024.01
2022-11-30T01:44:31.220Z,1023.99
2022-11-30T01:44:40.645Z,1023.96
2022-11-30T01:44:59.710Z,1024.02
2022-11-30T01:45:09.256Z,1024.01
2022-11-30T01:45:18.795Z,1024.01
2022-11-30T01:45:28.218Z,1023.95
2022-11-30T01:45:37.630Z,1023.99
2022-11-30T01:45:47.098Z,1024.01
2022-11-30T01:45:56.532Z,1023.98
2022-11-30T01:46:06.008Z,1024.03
2022-11-30T01:46:15.351Z,1024.00
2022-11-30T01:46:24.928Z,1023.99
2022-11-30T01:46:34.271Z,1024.04
2022-11-30T01:46:43.743Z,1023.93
2022-11-30T01:46:53.161Z,1023.97
2022-11-30T01:47:02.574Z,1024.00
2022-11-30T01:47:12.015Z,1024.02
2022-11-30T01:47:21.444Z,1023.99
2022-11-30T01:47:30.868Z,1024.05
2022-11-30T01:47:40.456Z,1024.11
2022-11-30T01:47:59.296Z,1024.06
2022-11-30T01:48:08.731Z,1024.06
2022-11-30T01:48:18.245Z,1024.00
2022-11-30T01:48:28.107Z,1023.96
2022-11-30T01:48:37.570Z,1023.99
2022-11-30T01:48:47.009Z,1024.03
2022-11-30T01:48:56.536Z,1024.00
2022-11-30T01:49:06.280Z,1024.00
2022-11-30T01:49:15.692Z,1024.02
2022-11-30T01:49:25.114Z,1024.01
2022-11-30T01:49:34.584Z,1023.97
2022-11-30T01:49:43.995Z,1023.99
2022-11-30T01:49:53.411Z,1023.97
2022-11-30T01:50:02.837Z,1024.04
2022-11-30T01:50:12.302Z,1023.99
2022-11-30T01:50:21.710Z,1024.03
2022-11-30T01:50:31.127Z,1023.99
2022-11-30T01:50:40.550Z,1024.03
2022-11-30T01:50:59.399Z,1024.05
2022-11-30T01:51:08.894Z,1024.01
2022-11-30T01:51:18.344Z,1024.00
2022-11-30T01:51:27.746Z,1023.99
2022-11-30T01:51:37.174Z,1024.02
2022-11-30T01:51:46.597Z,1023.96
2022-11-30T01:51:56.007Z,1024.06
2022-11-30T01:52:05.480Z,1024.03
2022-11-30T01:52:14.965Z,1023.97
2022-11-30T01:52:24.368Z,1024.01
2022-11-30T01:52:33.855Z,1023.99
2022-11-30T01:52:43.255Z,1024.01
2022-11-30T01:52:52.685Z,1024.08
2022-11-30T01:53:02.088Z,1024.02
2022-11-30T01:53:11.644Z,1024.06
2022-11-30T01:53:21.085Z,1024.04
2022-11-30T01:53:30.500Z,1024.09
2022-11-30T01:53:49.279Z,1024.03
2022-11-30T01:53:58.724Z,1024.07
2022-11-30T01:54:08.188Z,1024.06
2022-11-30T01:54:17.614Z,1023.99
2022-11-30T01:54:27.064Z,1024.02
2022-11-30T01:54:36.552Z,1024.01
2022-11-30T01:54:46.458Z,1023.98
2022-11-30T01:54:55.427Z,1024.03
2022-11-30T01:55:04.960Z,1023.99
2022-11-30T01:55:14.320Z,1024.04
2022-11-30T01:55:23.742Z,1024.01
2022-11-30T01:55:33.141Z,1023.99
2022-11-30T01:55:42.563Z,1023.99
2022-11-30T01:55:51.981Z,1024.03
2022-11-30T01:56:01.444Z,1024.01
2022-11-30T01:56:10.876Z,1024.04
2022-11-30T01:56:20.348Z,1024.00
2022-11-30T01:56:39.189Z,1024.02
2022-11-30T01:56:48.611Z,1024.02
2022-11-30T01:56:58.038Z,1024.01
2022-11-30T01:57:07.510Z,1024.04
2022-11-30T01:57:16.925Z,1024.03
2022-11-30T01:57:26.326Z,1024.05
2022-11-30T01:57:35.759Z,1024.04
2022-11-30T01:57:45.238Z,1024.01
2022-11-30T01:57:54.721Z,1024.04
2022-11-30T01:58:04.117Z,1023.98
2022-11-30T01:58:13.525Z,1024.12
2022-11-30T01:58:22.980Z,1024.03
2022-11-30T01:58:32.409Z,1024.02
2022-11-30T01:58:41.843Z,1024.09
2022-11-30T01:58:51.373Z,1024.14
2022-11-30T01:59:00.813Z,1024.02
2022-11-30T01:59:11.271Z,1024.01
2022-11-30T01:59:20.694Z,1024.05
2022-11-30T01:59:39.555Z,1024.01
2022-11-30T01:59:48.981Z,1024.00
2022-11-30T01:59:58.399Z,1024.06
2022-11-30T02:00:07.945Z,1024.05
2022-11-30T02:00:17.353Z,1024.00
2022-11-30T02:00:26.791Z,1024.06
2022-11-30T02:00:36.247Z,1024.00
2022-11-30T02:00:45.683Z,1024.02
2022-11-30T02:00:55.241Z,1024.03